logo tempoitalia

Diretta Meteo Rocksprings, Stati Uniti (USA)lunedì 31 agosto ore 01:35

Mappa
Sereno 26 °C Sereno 24 Ore: T.min 22 T.max 34
Ponente Sud-Est Km/h 27.8 Punto di rugiada: 19 °C Umidità: 65% Visibilità: 10 Km
Il sole sorge alle: 07:17 Il sole tramonta alle: 20:04
31 Agosto 2026 01:35 tempo osservato: Sereno Sereno 26 65 1019 vento: Nord SE 27.8
31 Agosto 2026 01:15 tempo osservato: Sereno Sereno 26 65 1018 vento: Nord S/SE 22.2
31 Agosto 2026 00:55 tempo osservato: Sereno Sereno 27 61 1018 vento: Nord SE 22.2
31 Agosto 2026 00:35 tempo osservato: Sereno Sereno 27 61 1018 vento: Nord SE 25.9
31 Agosto 2026 00:15 tempo osservato: Sereno Sereno 27 57 1018 vento: Nord SE 20.3
30 Agosto 2026 23:55 tempo osservato: Sereno Sereno 27 54 1018 vento: Nord SE 20.3
30 Agosto 2026 23:35 tempo osservato: Sereno Sereno 26 57 1018 vento: Nord E/SE 9.3
30 Agosto 2026 23:15 tempo osservato: Sereno Sereno 26 57 1018 vento: Nord E/SE 7.4
30 Agosto 2026 22:55 tempo osservato: Sereno Sereno 26 57 1018 vento: Nord E/SE 7.4
30 Agosto 2026 22:35 tempo osservato: Sereno Sereno 27 54 1018 vento: Nord E/SE 9.3
30 Agosto 2026 22:15 tempo osservato: Sereno Sereno 27 54 1018 vento: Nord E/SE 7.4
30 Agosto 2026 21:55 tempo osservato: Sereno Sereno 28 48 1018 vento: Nord E/SE 9.3
30 Agosto 2026 21:35 tempo osservato: Sereno Sereno 28 48 1018 vento: Nord E/SE 11.1
30 Agosto 2026 21:15 tempo osservato: Sereno Sereno 29 45 1017 vento: Nord SE 11.1
30 Agosto 2026 20:55 tempo osservato: Sereno Sereno 29 45 1017 vento: Nord E/SE 9.3
30 Agosto 2026 20:35 tempo osservato: Poco Nuvoloso Poco Nuvoloso 29 45 1017 vento: Nord SE 9.3
30 Agosto 2026 20:15 tempo osservato: Poco Nuvoloso Poco Nuvoloso 30 42 1017 vento: Nord SE 13
30 Agosto 2026 19:55 tempo osservato: Poco Nuvoloso Poco Nuvoloso 31 37 1017 vento: Nord SE 20.3
30 Agosto 2026 19:35 tempo osservato: Sereno Sereno 32 35 1016 vento: Nord S/SE 16.7
30 Agosto 2026 19:15 tempo osservato: Sereno Sereno 32 33 1016 vento: Nord S 18.5
30 Agosto 2026 18:55 tempo osservato: Poco Nuvoloso Poco Nuvoloso 33 33 1016 vento: Nord S/SE 14.8
30 Agosto 2026 18:35 tempo osservato: Poco Nuvoloso Poco Nuvoloso 33 31 1016 vento: Nord S/SE 18.5
30 Agosto 2026 18:15 tempo osservato: Poco Nuvoloso Poco Nuvoloso 34 32 1016 vento: Nord SE 20.3
30 Agosto 2026 17:55 tempo osservato: Nuvoloso Nuvoloso 34 30 1016 vento: Nord SE 18.5
30 Agosto 2026 17:35 tempo osservato: Poco Nuvoloso Poco Nuvoloso 34 32 1016 vento: Nord E/SE 18.5
30 Agosto 2026 17:15 tempo osservato: Poco Nuvoloso Poco Nuvoloso 34 32 1016 vento: Nord SE 22.2
30 Agosto 2026 16:55 tempo osservato: Poco Nuvoloso Poco Nuvoloso 34 30 1016 vento: Nord SE 16.7
30 Agosto 2026 16:35 tempo osservato: Sereno Sereno 34 32 1017 vento: Nord S 22.2
30 Agosto 2026 16:15 tempo osservato: Sereno Sereno 34 32 1017 vento: Nord S/SE 18.5
30 Agosto 2026 15:55 tempo osservato: Sereno Sereno 34 30 1017 vento: Nord S/SE 13
30 Agosto 2026 15:35 tempo osservato: Sereno Sereno 34 32 1018 vento: Nord S 16.7
30 Agosto 2026 15:15 tempo osservato: Sereno Sereno 34 34 1018 vento: Nord S/SE 16.7
30 Agosto 2026 14:55 tempo osservato: Sereno Sereno 33 33 1018 vento: Nord SE 18.5
30 Agosto 2026 14:35 tempo osservato: Sereno Sereno 34 30 1018 vento: Nord S/SE 13
30 Agosto 2026 14:15 tempo osservato: Sereno Sereno 33 33 1019 vento: Nord S/SE 20.3
30 Agosto 2026 13:55 tempo osservato: Sereno Sereno 33 31 1019 vento: Nord SE 20.3
30 Agosto 2026 13:35 tempo osservato: Sereno Sereno 32 38 1019 vento: Nord E/SE 20.3
30 Agosto 2026 13:15 tempo osservato: Sereno Sereno 33 38 1020 vento: Nord S/SE 18.5
30 Agosto 2026 12:55 tempo osservato: Sereno Sereno 32 43 1020 vento: Nord S/SE 14.8
30 Agosto 2026 12:35 tempo osservato: Sereno Sereno 31 43 1020 vento: Nord S/SE 14.8
30 Agosto 2026 12:15 tempo osservato: Sereno Sereno 31 48 1020 vento: Nord SE 18.5
30 Agosto 2026 11:55 tempo osservato: Sereno Sereno 31 45 1021 vento: Nord SE 18.5
30 Agosto 2026 11:35 tempo osservato: Sereno Sereno 30 51 1021 vento: Nord S 16.7
30 Agosto 2026 11:15 tempo osservato: Sereno Sereno 29 58 1021 vento: Nord S/SE 11.1
30 Agosto 2026 10:55 tempo osservato: Sereno Sereno 29 58 1021 vento: Nord S 13
30 Agosto 2026 10:35 tempo osservato: Sereno Sereno 29 58 1020 vento: Nord S 16.7
30 Agosto 2026 10:15 tempo osservato: Sereno Sereno 27 65 1021 vento: Nord S/SE 14.8
30 Agosto 2026 09:55 tempo osservato: Sereno Sereno 27 65 1021 vento: Nord S 14.8
30 Agosto 2026 09:35 tempo osservato: Sereno Sereno 26 73 1020 vento: Nord S/SE 16.7
30 Agosto 2026 09:15 tempo osservato: Sereno Sereno 25 78 1020 vento: Nord S/SE 16.7
30 Agosto 2026 08:55 tempo osservato: Sereno Sereno 25 78 1020 vento: Nord S 13
30 Agosto 2026 08:35 tempo osservato: Sereno Sereno 24 83 1020 vento: Nord N 9.3
30 Agosto 2026 08:15 tempo osservato: Sereno Sereno 23 83 1020 vento: Nord S/SE 14.8
30 Agosto 2026 07:55 tempo osservato: Sereno Sereno 22 88 1020 vento: Nord S/SE 13
30 Agosto 2026 07:35 tempo osservato: Sereno Sereno 22 88 1019 vento: Nord SE 11.1
30 Agosto 2026 07:15 tempo osservato: Sereno Sereno 22 88 1019 vento: Nord SE 11.1
30 Agosto 2026 06:55 tempo osservato: Sereno Sereno 22 88 1019 vento: Nord SE 11.1
30 Agosto 2026 06:35 tempo osservato: Sereno Sereno 22 88 1019 vento: Nord SE 11.1
30 Agosto 2026 06:15 tempo osservato: Sereno Sereno 22 88 1019 vento: Nord SE 11.1
30 Agosto 2026 05:55 tempo osservato: Sereno Sereno 23 83 1019 vento: Nord SE 14.8
30 Agosto 2026 05:35 tempo osservato: Sereno Sereno 23 78 1019 vento: Nord SE 13
30 Agosto 2026 05:15 tempo osservato: Sereno Sereno 23 78 1019 vento: Nord SE 14.8
30 Agosto 2026 04:55 tempo osservato: Poco Nuvoloso Poco Nuvoloso 23 78 1019 vento: Nord S/SE 16.7
30 Agosto 2026 04:35 tempo osservato: Nuvoloso Nuvoloso 23 78 1019 vento: Nord SE 14.8
30 Agosto 2026 04:15 tempo osservato: Molto Nuvoloso Molto Nuvoloso 23 78 1019 vento: Nord SE 16.7
30 Agosto 2026 03:55 tempo osservato: Poco Nuvoloso Poco Nuvoloso 24 73 1019 vento: Nord SE 18.5
30 Agosto 2026 03:35 tempo osservato: Poco Nuvoloso Poco Nuvoloso 24 73 1019 vento: Nord SE 16.7
30 Agosto 2026 03:15 tempo osservato: Sereno Sereno 24 73 1019 vento: Nord SE 20.3
30 Agosto 2026 02:55 tempo osservato: Sereno Sereno 25 69 1019 vento: Nord SE 18.5
30 Agosto 2026 02:35 tempo osservato: Sereno Sereno 25 69 1019 vento: Nord S/SE 14.8
30 Agosto 2026 02:15 tempo osservato: Sereno Sereno 25 69 1020 vento: Nord SE 16.7
30 Agosto 2026 01:55 tempo osservato: Sereno Sereno 25 69 1020 vento: Nord SE 18.5
30 Agosto 2026 01:35 tempo osservato: Sereno Sereno 25 69 1020 vento: Nord SE 13